sensor_id;sensor_type;location;lat;lon;timestamp;P1;durP1;ratioP1;P2;durP2;ratioP2
30173;SDS011;16985;50.814;8.530;2022-08-20T00:01:45;7.60;;;5.82;;
30173;SDS011;16985;50.814;8.530;2022-08-20T00:04:12;7.82;;;6.13;;
30173;SDS011;16985;50.814;8.530;2022-08-20T00:06:38;11.15;;;5.68;;
30173;SDS011;16985;50.814;8.530;2022-08-20T00:09:05;8.82;;;5.85;;
30173;SDS011;16985;50.814;8.530;2022-08-20T00:11:31;6.15;;;4.68;;
30173;SDS011;16985;50.814;8.530;2022-08-20T00:13:58;8.35;;;5.40;;
30173;SDS011;16985;50.814;8.530;2022-08-20T00:16:28;8.02;;;5.55;;
30173;SDS011;16985;50.814;8.530;2022-08-20T00:18:58;12.95;;;5.78;;
30173;SDS011;16985;50.814;8.530;2022-08-20T00:21:25;7.90;;;5.43;;
30173;SDS011;16985;50.814;8.530;2022-08-20T00:23:52;6.78;;;4.80;;
30173;SDS011;16985;50.814;8.530;2022-08-20T00:26:20;6.30;;;5.15;;
30173;SDS011;16985;50.814;8.530;2022-08-20T00:28:47;8.45;;;5.80;;
30173;SDS011;16985;50.814;8.530;2022-08-20T00:31:14;8.60;;;5.20;;
30173;SDS011;16985;50.814;8.530;2022-08-20T00:33:43;7.38;;;5.65;;
30173;SDS011;16985;50.814;8.530;2022-08-20T00:36:11;8.68;;;5.50;;
30173;SDS011;16985;50.814;8.530;2022-08-20T00:41:08;7.90;;;5.25;;
30173;SDS011;16985;50.814;8.530;2022-08-20T00:43:38;7.85;;;5.80;;
30173;SDS011;16985;50.814;8.530;2022-08-20T00:46:14;8.45;;;5.40;;
30173;SDS011;16985;50.814;8.530;2022-08-20T00:48:51;10.25;;;5.70;;
30173;SDS011;16985;50.814;8.530;2022-08-20T00:51:28;8.02;;;5.60;;
30173;SDS011;16985;50.814;8.530;2022-08-20T00:57:02;8.13;;;5.70;;
30173;SDS011;16985;50.814;8.530;2022-08-20T00:59:36;7.00;;;5.13;;
30173;SDS011;16985;50.814;8.530;2022-08-20T01:02:05;8.27;;;5.55;;
30173;SDS011;16985;50.814;8.530;2022-08-20T01:04:36;7.82;;;6.30;;
30173;SDS011;16985;50.814;8.530;2022-08-20T01:07:02;7.75;;;5.60;;
30173;SDS011;16985;50.814;8.530;2022-08-20T01:11:56;7.65;;;6.32;;
30173;SDS011;16985;50.814;8.530;2022-08-20T01:14:22;6.45;;;5.47;;
30173;SDS011;16985;50.814;8.530;2022-08-20T01:17:01;7.60;;;5.90;;
30173;SDS011;16985;50.814;8.530;2022-08-20T01:19:40;7.78;;;6.18;;
30173;SDS011;16985;50.814;8.530;2022-08-20T01:22:10;7.35;;;5.35;;
30173;SDS011;16985;50.814;8.530;2022-08-20T01:25:16;6.57;;;5.65;;
30173;SDS011;16985;50.814;8.530;2022-08-20T01:27:53;7.25;;;5.60;;
30173;SDS011;16985;50.814;8.530;2022-08-20T01:30:20;10.57;;;5.85;;
30173;SDS011;16985;50.814;8.530;2022-08-20T01:32:47;7.40;;;5.72;;
30173;SDS011;16985;50.814;8.530;2022-08-20T01:35:17;8.23;;;5.45;;
30173;SDS011;16985;50.814;8.530;2022-08-20T01:37:46;10.20;;;6.00;;
30173;SDS011;16985;50.814;8.530;2022-08-20T01:40:13;11.15;;;6.13;;
30173;SDS011;16985;50.814;8.530;2022-08-20T01:42:48;9.60;;;6.60;;
30173;SDS011;16985;50.814;8.530;2022-08-20T01:45:14;8.23;;;6.07;;
30173;SDS011;16985;50.814;8.530;2022-08-20T01:47:40;10.82;;;6.28;;
30173;SDS011;16985;50.814;8.530;2022-08-20T01:50:14;8.60;;;5.47;;
30173;SDS011;16985;50.814;8.530;2022-08-20T01:55:21;7.72;;;6.10;;
30173;SDS011;16985;50.814;8.530;2022-08-20T01:57:48;7.43;;;6.43;;
30173;SDS011;16985;50.814;8.530;2022-08-20T02:00:14;9.35;;;6.07;;
30173;SDS011;16985;50.814;8.530;2022-08-20T02:02:45;8.43;;;5.90;;
30173;SDS011;16985;50.814;8.530;2022-08-20T02:05:11;12.20;;;7.30;;
30173;SDS011;16985;50.814;8.530;2022-08-20T02:07:37;10.40;;;6.10;;
30173;SDS011;16985;50.814;8.530;2022-08-20T02:10:04;10.10;;;6.35;;
30173;SDS011;16985;50.814;8.530;2022-08-20T02:12:34;6.88;;;6.03;;
30173;SDS011;16985;50.814;8.530;2022-08-20T02:14:59;8.10;;;6.15;;
30173;SDS011;16985;50.814;8.530;2022-08-20T02:17:25;9.80;;;6.15;;
30173;SDS011;16985;50.814;8.530;2022-08-20T02:19:58;13.15;;;6.45;;
30173;SDS011;16985;50.814;8.530;2022-08-20T02:25:07;8.10;;;5.65;;
30173;SDS011;16985;50.814;8.530;2022-08-20T02:27:35;7.38;;;5.28;;
30173;SDS011;16985;50.814;8.530;2022-08-20T02:32:37;6.45;;;5.50;;
30173;SDS011;16985;50.814;8.530;2022-08-20T02:35:04;8.05;;;5.95;;
30173;SDS011;16985;50.814;8.530;2022-08-20T02:37:37;6.93;;;5.18;;
30173;SDS011;16985;50.814;8.530;2022-08-20T02:40:08;5.80;;;4.88;;
30173;SDS011;16985;50.814;8.530;2022-08-20T02:42:40;7.50;;;5.47;;
30173;SDS011;16985;50.814;8.530;2022-08-20T02:45:07;5.88;;;4.95;;
30173;SDS011;16985;50.814;8.530;2022-08-20T02:47:39;11.38;;;5.50;;
30173;SDS011;16985;50.814;8.530;2022-08-20T02:50:06;9.90;;;5.40;;
30173;SDS011;16985;50.814;8.530;2022-08-20T02:52:36;6.53;;;4.63;;
30173;SDS011;16985;50.814;8.530;2022-08-20T02:55:02;5.82;;;4.85;;
30173;SDS011;16985;50.814;8.530;2022-08-20T02:57:29;9.02;;;5.20;;
30173;SDS011;16985;50.814;8.530;2022-08-20T02:59:55;6.07;;;4.72;;
30173;SDS011;16985;50.814;8.530;2022-08-20T03:02:21;6.70;;;4.60;;
30173;SDS011;16985;50.814;8.530;2022-08-20T03:04:46;6.10;;;3.97;;
30173;SDS011;16985;50.814;8.530;2022-08-20T03:07:12;7.88;;;5.00;;
30173;SDS011;16985;50.814;8.530;2022-08-20T03:09:38;6.47;;;4.53;;
30173;SDS011;16985;50.814;8.530;2022-08-20T03:12:06;6.47;;;4.28;;
30173;SDS011;16985;50.814;8.530;2022-08-20T03:14:32;5.90;;;4.60;;
30173;SDS011;16985;50.814;8.530;2022-08-20T03:16:59;4.70;;;3.90;;
30173;SDS011;16985;50.814;8.530;2022-08-20T03:19:26;6.35;;;4.40;;
30173;SDS011;16985;50.814;8.530;2022-08-20T03:21:52;7.65;;;4.82;;
30173;SDS011;16985;50.814;8.530;2022-08-20T03:24:18;6.28;;;4.68;;
30173;SDS011;16985;50.814;8.530;2022-08-20T03:26:44;7.45;;;4.78;;
30173;SDS011;16985;50.814;8.530;2022-08-20T03:29:10;6.88;;;4.28;;
30173;SDS011;16985;50.814;8.530;2022-08-20T03:31:36;4.43;;;4.03;;
30173;SDS011;16985;50.814;8.530;2022-08-20T03:34:02;4.70;;;4.03;;
30173;SDS011;16985;50.814;8.530;2022-08-20T03:36:28;6.75;;;4.32;;
30173;SDS011;16985;50.814;8.530;2022-08-20T03:38:58;4.85;;;3.92;;
30173;SDS011;16985;50.814;8.530;2022-08-20T03:41:28;5.20;;;4.35;;
30173;SDS011;16985;50.814;8.530;2022-08-20T03:43:56;5.45;;;4.05;;
30173;SDS011;16985;50.814;8.530;2022-08-20T03:46:22;4.90;;;4.07;;
30173;SDS011;16985;50.814;8.530;2022-08-20T03:48:49;4.53;;;3.80;;
30173;SDS011;16985;50.814;8.530;2022-08-20T03:51:16;6.83;;;3.93;;
30173;SDS011;16985;50.814;8.530;2022-08-20T03:53:41;5.60;;;4.00;;
30173;SDS011;16985;50.814;8.530;2022-08-20T03:56:07;5.72;;;3.67;;
30173;SDS011;16985;50.814;8.530;2022-08-20T03:58:33;5.40;;;3.42;;
30173;SDS011;16985;50.814;8.530;2022-08-20T04:01:00;8.07;;;3.75;;
30173;SDS011;16985;50.814;8.530;2022-08-20T04:03:26;3.95;;;3.45;;
30173;SDS011;16985;50.814;8.530;2022-08-20T04:05:52;4.75;;;3.83;;
30173;SDS011;16985;50.814;8.530;2022-08-20T04:08:21;6.15;;;4.00;;
30173;SDS011;16985;50.814;8.530;2022-08-20T04:10:53;4.45;;;3.58;;
30173;SDS011;16985;50.814;8.530;2022-08-20T04:13:24;4.38;;;3.78;;
30173;SDS011;16985;50.814;8.530;2022-08-20T04:15:51;3.95;;;3.38;;
30173;SDS011;16985;50.814;8.530;2022-08-20T04:18:19;4.50;;;3.97;;
30173;SDS011;16985;50.814;8.530;2022-08-20T04:20:48;4.03;;;3.63;;
30173;SDS011;16985;50.814;8.530;2022-08-20T04:23:15;3.80;;;3.50;;
30173;SDS011;16985;50.814;8.530;2022-08-20T04:25:41;4.65;;;3.60;;
30173;SDS011;16985;50.814;8.530;2022-08-20T04:28:13;4.95;;;4.05;;
30173;SDS011;16985;50.814;8.530;2022-08-20T04:30:48;6.05;;;3.80;;
30173;SDS011;16985;50.814;8.530;2022-08-20T04:33:16;4.68;;;3.58;;
30173;SDS011;16985;50.814;8.530;2022-08-20T04:35:43;5.72;;;4.28;;
30173;SDS011;16985;50.814;8.530;2022-08-20T04:38:11;8.18;;;3.28;;
30173;SDS011;16985;50.814;8.530;2022-08-20T04:40:40;4.75;;;3.70;;
30173;SDS011;16985;50.814;8.530;2022-08-20T04:43:22;4.20;;;3.80;;
30173;SDS011;16985;50.814;8.530;2022-08-20T04:45:51;4.70;;;4.10;;
30173;SDS011;16985;50.814;8.530;2022-08-20T04:48:18;5.55;;;4.43;;
30173;SDS011;16985;50.814;8.530;2022-08-20T04:50:47;5.93;;;4.55;;
30173;SDS011;16985;50.814;8.530;2022-08-20T04:53:14;4.93;;;4.28;;
30173;SDS011;16985;50.814;8.530;2022-08-20T04:55:43;5.72;;;4.30;;
30173;SDS011;16985;50.814;8.530;2022-08-20T04:58:11;6.72;;;4.18;;
30173;SDS011;16985;50.814;8.530;2022-08-20T05:01:05;6.07;;;4.60;;
30173;SDS011;16985;50.814;8.530;2022-08-20T05:03:35;5.07;;;4.43;;
30173;SDS011;16985;50.814;8.530;2022-08-20T05:06:06;5.28;;;4.50;;
30173;SDS011;16985;50.814;8.530;2022-08-20T05:08:33;6.03;;;4.93;;
30173;SDS011;16985;50.814;8.530;2022-08-20T05:11:02;4.35;;;3.95;;
30173;SDS011;16985;50.814;8.530;2022-08-20T05:13:29;5.25;;;4.32;;
30173;SDS011;16985;50.814;8.530;2022-08-20T05:15:56;5.30;;;4.35;;
30173;SDS011;16985;50.814;8.530;2022-08-20T05:18:25;7.40;;;4.50;;
30173;SDS011;16985;50.814;8.530;2022-08-20T05:20:52;4.60;;;4.00;;
30173;SDS011;16985;50.814;8.530;2022-08-20T05:23:19;4.50;;;4.10;;
30173;SDS011;16985;50.814;8.530;2022-08-20T05:25:46;5.70;;;4.40;;
30173;SDS011;16985;50.814;8.530;2022-08-20T05:28:17;6.18;;;4.50;;
30173;SDS011;16985;50.814;8.530;2022-08-20T05:30:49;7.53;;;4.70;;
30173;SDS011;16985;50.814;8.530;2022-08-20T05:33:17;5.93;;;5.35;;
30173;SDS011;16985;50.814;8.530;2022-08-20T05:35:46;4.60;;;4.20;;
30173;SDS011;16985;50.814;8.530;2022-08-20T05:38:15;5.20;;;4.70;;
30173;SDS011;16985;50.814;8.530;2022-08-20T05:40:43;5.38;;;4.85;;
30173;SDS011;16985;50.814;8.530;2022-08-20T05:43:09;8.48;;;5.70;;
30173;SDS011;16985;50.814;8.530;2022-08-20T05:45:36;6.28;;;5.60;;
30173;SDS011;16985;50.814;8.530;2022-08-20T05:48:09;6.28;;;5.47;;
30173;SDS011;16985;50.814;8.530;2022-08-20T05:50:38;7.10;;;6.18;;
30173;SDS011;16985;50.814;8.530;2022-08-20T05:55:32;7.68;;;5.82;;
30173;SDS011;16985;50.814;8.530;2022-08-20T05:58:00;7.88;;;5.65;;
30173;SDS011;16985;50.814;8.530;2022-08-20T06:00:29;6.70;;;6.00;;
30173;SDS011;16985;50.814;8.530;2022-08-20T06:02:57;6.82;;;5.68;;
30173;SDS011;16985;50.814;8.530;2022-08-20T06:05:42;7.18;;;6.07;;
30173;SDS011;16985;50.814;8.530;2022-08-20T06:08:09;6.72;;;6.00;;
30173;SDS011;16985;50.814;8.530;2022-08-20T06:10:36;9.67;;;6.27;;
30173;SDS011;16985;50.814;8.530;2022-08-20T06:13:04;7.25;;;6.10;;
30173;SDS011;16985;50.814;8.530;2022-08-20T06:15:31;6.97;;;6.28;;
30173;SDS011;16985;50.814;8.530;2022-08-20T06:17:58;8.52;;;6.40;;
30173;SDS011;16985;50.814;8.530;2022-08-20T06:20:24;6.90;;;6.32;;
30173;SDS011;16985;50.814;8.530;2022-08-20T06:22:53;7.35;;;5.65;;
30173;SDS011;16985;50.814;8.530;2022-08-20T06:25:19;6.85;;;6.15;;
30173;SDS011;16985;50.814;8.530;2022-08-20T06:27:45;8.00;;;6.75;;
30173;SDS011;16985;50.814;8.530;2022-08-20T06:30:12;7.20;;;6.20;;
30173;SDS011;16985;50.814;8.530;2022-08-20T06:32:41;8.65;;;7.53;;
30173;SDS011;16985;50.814;8.530;2022-08-20T06:35:07;8.52;;;6.75;;
30173;SDS011;16985;50.814;8.530;2022-08-20T06:37:35;8.37;;;7.37;;
30173;SDS011;16985;50.814;8.530;2022-08-20T06:42:40;7.00;;;6.40;;
30173;SDS011;16985;50.814;8.530;2022-08-20T06:45:12;6.65;;;6.05;;
30173;SDS011;16985;50.814;8.530;2022-08-20T06:47:41;6.32;;;5.72;;
30173;SDS011;16985;50.814;8.530;2022-08-20T06:50:14;7.15;;;6.45;;
30173;SDS011;16985;50.814;8.530;2022-08-20T06:52:44;7.47;;;5.95;;
30173;SDS011;16985;50.814;8.530;2022-08-20T06:55:11;7.93;;;6.93;;
30173;SDS011;16985;50.814;8.530;2022-08-20T06:57:38;7.75;;;6.10;;
30173;SDS011;16985;50.814;8.530;2022-08-20T07:00:07;6.47;;;5.88;;
30173;SDS011;16985;50.814;8.530;2022-08-20T07:02:38;7.50;;;6.65;;
30173;SDS011;16985;50.814;8.530;2022-08-20T07:05:05;9.98;;;6.95;;
30173;SDS011;16985;50.814;8.530;2022-08-20T07:07:32;8.07;;;5.80;;
30173;SDS011;16985;50.814;8.530;2022-08-20T07:09:59;6.30;;;5.80;;
30173;SDS011;16985;50.814;8.530;2022-08-20T07:12:30;7.53;;;6.72;;
30173;SDS011;16985;50.814;8.530;2022-08-20T07:14:59;6.05;;;5.47;;
30173;SDS011;16985;50.814;8.530;2022-08-20T07:17:24;6.70;;;6.05;;
30173;SDS011;16985;50.814;8.530;2022-08-20T07:19:50;6.30;;;5.70;;
30173;SDS011;16985;50.814;8.530;2022-08-20T07:22:16;5.75;;;5.25;;
30173;SDS011;16985;50.814;8.530;2022-08-20T07:24:42;6.13;;;5.53;;
30173;SDS011;16985;50.814;8.530;2022-08-20T07:27:08;5.72;;;5.15;;
30173;SDS011;16985;50.814;8.530;2022-08-20T07:29:34;6.50;;;5.55;;
30173;SDS011;16985;50.814;8.530;2022-08-20T07:32:18;6.07;;;5.47;;
30173;SDS011;16985;50.814;8.530;2022-08-20T07:35:00;7.07;;;5.30;;
30173;SDS011;16985;50.814;8.530;2022-08-20T07:37:28;5.88;;;5.28;;
30173;SDS011;16985;50.814;8.530;2022-08-20T07:39:54;6.10;;;5.50;;
30173;SDS011;16985;50.814;8.530;2022-08-20T07:42:20;6.07;;;5.32;;
30173;SDS011;16985;50.814;8.530;2022-08-20T07:44:46;6.68;;;5.95;;
30173;SDS011;16985;50.814;8.530;2022-08-20T07:47:12;6.93;;;5.05;;
30173;SDS011;16985;50.814;8.530;2022-08-20T07:49:43;8.80;;;5.30;;
30173;SDS011;16985;50.814;8.530;2022-08-20T07:52:08;5.65;;;5.00;;
30173;SDS011;16985;50.814;8.530;2022-08-20T07:54:37;6.30;;;5.07;;
30173;SDS011;16985;50.814;8.530;2022-08-20T07:57:04;5.80;;;5.30;;
30173;SDS011;16985;50.814;8.530;2022-08-20T07:59:30;5.70;;;5.15;;
30173;SDS011;16985;50.814;8.530;2022-08-20T08:01:56;5.10;;;4.70;;
30173;SDS011;16985;50.814;8.530;2022-08-20T08:04:22;5.30;;;4.82;;
30173;SDS011;16985;50.814;8.530;2022-08-20T08:06:50;6.43;;;5.20;;
30173;SDS011;16985;50.814;8.530;2022-08-20T08:09:16;5.50;;;4.75;;
30173;SDS011;16985;50.814;8.530;2022-08-20T08:11:47;4.97;;;4.57;;
30173;SDS011;16985;50.814;8.530;2022-08-20T08:14:15;5.05;;;4.65;;
30173;SDS011;16985;50.814;8.530;2022-08-20T08:16:47;5.50;;;4.63;;
30173;SDS011;16985;50.814;8.530;2022-08-20T08:19:14;5.28;;;4.78;;
30173;SDS011;16985;50.814;8.530;2022-08-20T08:24:08;6.90;;;4.72;;
30173;SDS011;16985;50.814;8.530;2022-08-20T08:26:35;5.10;;;4.70;;
30173;SDS011;16985;50.814;8.530;2022-08-20T08:29:02;5.75;;;5.25;;
30173;SDS011;16985;50.814;8.530;2022-08-20T08:31:32;4.95;;;4.30;;
30173;SDS011;16985;50.814;8.530;2022-08-20T08:33:58;6.07;;;5.47;;
30173;SDS011;16985;50.814;8.530;2022-08-20T08:36:24;5.32;;;4.75;;
30173;SDS011;16985;50.814;8.530;2022-08-20T08:38:50;5.80;;;5.30;;
30173;SDS011;16985;50.814;8.530;2022-08-20T08:44:20;7.43;;;5.95;;
30173;SDS011;16985;50.814;8.530;2022-08-20T08:46:52;6.15;;;5.55;;
30173;SDS011;16985;50.814;8.530;2022-08-20T08:49:23;6.25;;;5.65;;
30173;SDS011;16985;50.814;8.530;2022-08-20T08:51:56;6.57;;;5.15;;
30173;SDS011;16985;50.814;8.530;2022-08-20T08:54:29;6.00;;;5.50;;
30173;SDS011;16985;50.814;8.530;2022-08-20T08:56:56;5.40;;;4.87;;
30173;SDS011;16985;50.814;8.530;2022-08-20T08:59:23;6.70;;;4.50;;
30173;SDS011;16985;50.814;8.530;2022-08-20T09:01:54;5.25;;;4.70;;
30173;SDS011;16985;50.814;8.530;2022-08-20T09:04:27;6.20;;;5.15;;
30173;SDS011;16985;50.814;8.530;2022-08-20T09:07:03;4.85;;;4.35;;
30173;SDS011;16985;50.814;8.530;2022-08-20T09:09:35;5.35;;;4.53;;
30173;SDS011;16985;50.814;8.530;2022-08-20T09:12:07;12.13;;;4.40;;
30173;SDS011;16985;50.814;8.530;2022-08-20T09:14:37;4.82;;;4.32;;
30173;SDS011;16985;50.814;8.530;2022-08-20T09:17:03;6.95;;;4.60;;
30173;SDS011;16985;50.814;8.530;2022-08-20T09:19:30;4.85;;;4.28;;
30173;SDS011;16985;50.814;8.530;2022-08-20T09:21:56;5.60;;;4.03;;
30173;SDS011;16985;50.814;8.530;2022-08-20T09:24:22;4.75;;;4.03;;
30173;SDS011;16985;50.814;8.530;2022-08-20T09:26:48;6.88;;;3.75;;
30173;SDS011;16985;50.814;8.530;2022-08-20T09:29:14;4.18;;;3.10;;
30173;SDS011;16985;50.814;8.530;2022-08-20T09:31:40;4.47;;;3.33;;
30173;SDS011;16985;50.814;8.530;2022-08-20T09:34:06;3.95;;;3.58;;
30173;SDS011;16985;50.814;8.530;2022-08-20T09:36:32;4.38;;;3.85;;
30173;SDS011;16985;50.814;8.530;2022-08-20T09:38:59;6.20;;;4.18;;
30173;SDS011;16985;50.814;8.530;2022-08-20T09:41:25;4.63;;;3.80;;
30173;SDS011;16985;50.814;8.530;2022-08-20T09:43:51;5.82;;;3.88;;
30173;SDS011;16985;50.814;8.530;2022-08-20T09:46:17;4.38;;;3.97;;
30173;SDS011;16985;50.814;8.530;2022-08-20T09:48:43;5.80;;;3.95;;
30173;SDS011;16985;50.814;8.530;2022-08-20T09:51:08;4.53;;;3.83;;
30173;SDS011;16985;50.814;8.530;2022-08-20T09:53:34;5.25;;;4.00;;
30173;SDS011;16985;50.814;8.530;2022-08-20T09:56:00;3.35;;;3.05;;
30173;SDS011;16985;50.814;8.530;2022-08-20T09:58:36;6.15;;;3.47;;
30173;SDS011;16985;50.814;8.530;2022-08-20T10:01:22;3.80;;;3.50;;
30173;SDS011;16985;50.814;8.530;2022-08-20T10:03:48;3.97;;;3.60;;
30173;SDS011;16985;50.814;8.530;2022-08-20T10:06:15;3.50;;;3.20;;
30173;SDS011;16985;50.814;8.530;2022-08-20T10:08:43;3.53;;;3.22;;
30173;SDS011;16985;50.814;8.530;2022-08-20T10:11:09;3.30;;;3.00;;
30173;SDS011;16985;50.814;8.530;2022-08-20T10:13:36;3.65;;;3.35;;
30173;SDS011;16985;50.814;8.530;2022-08-20T10:16:01;3.78;;;3.47;;
30173;SDS011;16985;50.814;8.530;2022-08-20T10:18:27;3.70;;;3.40;;
30173;SDS011;16985;50.814;8.530;2022-08-20T10:20:53;4.85;;;4.43;;
30173;SDS011;16985;50.814;8.530;2022-08-20T10:23:19;4.80;;;4.30;;
30173;SDS011;16985;50.814;8.530;2022-08-20T10:25:45;4.68;;;4.25;;
30173;SDS011;16985;50.814;8.530;2022-08-20T10:28:10;5.30;;;4.80;;
30173;SDS011;16985;50.814;8.530;2022-08-20T10:30:36;4.75;;;4.22;;
30173;SDS011;16985;50.814;8.530;2022-08-20T10:33:02;6.80;;;5.60;;
30173;SDS011;16985;50.814;8.530;2022-08-20T10:35:28;7.95;;;6.10;;
30173;SDS011;16985;50.814;8.530;2022-08-20T10:37:54;6.57;;;5.88;;
30173;SDS011;16985;50.814;8.530;2022-08-20T10:40:20;24.52;;;7.20;;
30173;SDS011;16985;50.814;8.530;2022-08-20T10:42:46;8.45;;;7.65;;
30173;SDS011;16985;50.814;8.530;2022-08-20T10:45:13;7.30;;;6.68;;
30173;SDS011;16985;50.814;8.530;2022-08-20T10:50:08;7.70;;;6.90;;
30173;SDS011;16985;50.814;8.530;2022-08-20T10:52:37;7.80;;;7.00;;
30173;SDS011;16985;50.814;8.530;2022-08-20T10:55:03;7.50;;;6.40;;
30173;SDS011;16985;50.814;8.530;2022-08-20T10:57:30;6.80;;;6.10;;
30173;SDS011;16985;50.814;8.530;2022-08-20T11:00:00;10.13;;;6.95;;
30173;SDS011;16985;50.814;8.530;2022-08-20T11:02:26;5.95;;;5.35;;
30173;SDS011;16985;50.814;8.530;2022-08-20T11:04:52;6.63;;;5.70;;
30173;SDS011;16985;50.814;8.530;2022-08-20T11:07:30;6.03;;;5.43;;
30173;SDS011;16985;50.814;8.530;2022-08-20T11:10:04;6.53;;;5.93;;
30173;SDS011;16985;50.814;8.530;2022-08-20T11:12:32;5.68;;;5.05;;
30173;SDS011;16985;50.814;8.530;2022-08-20T11:14:58;5.93;;;5.32;;
30173;SDS011;16985;50.814;8.530;2022-08-20T11:17:29;6.80;;;6.20;;
30173;SDS011;16985;50.814;8.530;2022-08-20T11:20:00;5.97;;;5.38;;
30173;SDS011;16985;50.814;8.530;2022-08-20T11:22:28;8.27;;;6.03;;
30173;SDS011;16985;50.814;8.530;2022-08-20T11:24:54;8.95;;;6.47;;
30173;SDS011;16985;50.814;8.530;2022-08-20T11:27:24;8.45;;;5.90;;
30173;SDS011;16985;50.814;8.530;2022-08-20T11:29:56;9.02;;;6.90;;
30173;SDS011;16985;50.814;8.530;2022-08-20T11:32:23;7.07;;;6.38;;
30173;SDS011;16985;50.814;8.530;2022-08-20T11:34:49;6.40;;;5.80;;
30173;SDS011;16985;50.814;8.530;2022-08-20T11:37:16;5.68;;;5.18;;
30173;SDS011;16985;50.814;8.530;2022-08-20T11:39:45;7.93;;;5.38;;
30173;SDS011;16985;50.814;8.530;2022-08-20T11:42:10;6.35;;;5.50;;
30173;SDS011;16985;50.814;8.530;2022-08-20T11:44:36;6.13;;;5.43;;
30173;SDS011;16985;50.814;8.530;2022-08-20T11:47:03;6.22;;;5.55;;
30173;SDS011;16985;50.814;8.530;2022-08-20T11:51:58;5.72;;;4.93;;
30173;SDS011;16985;50.814;8.530;2022-08-20T11:54:24;6.22;;;5.25;;
30173;SDS011;16985;50.814;8.530;2022-08-20T11:56:52;6.40;;;4.80;;
30173;SDS011;16985;50.814;8.530;2022-08-20T11:59:22;5.93;;;5.32;;
30173;SDS011;16985;50.814;8.530;2022-08-20T12:01:48;7.27;;;4.80;;
30173;SDS011;16985;50.814;8.530;2022-08-20T12:04:14;5.22;;;4.65;;
30173;SDS011;16985;50.814;8.530;2022-08-20T12:06:40;5.43;;;4.45;;
30173;SDS011;16985;50.814;8.530;2022-08-20T12:09:06;5.30;;;4.65;;
30173;SDS011;16985;50.814;8.530;2022-08-20T12:11:32;5.32;;;4.72;;
30173;SDS011;16985;50.814;8.530;2022-08-20T12:13:57;5.75;;;4.88;;
30173;SDS011;16985;50.814;8.530;2022-08-20T12:16:23;4.45;;;3.97;;
30173;SDS011;16985;50.814;8.530;2022-08-20T12:18:50;6.25;;;4.93;;
30173;SDS011;16985;50.814;8.530;2022-08-20T12:21:16;5.13;;;4.63;;
30173;SDS011;16985;50.814;8.530;2022-08-20T12:23:42;5.22;;;4.72;;
30173;SDS011;16985;50.814;8.530;2022-08-20T12:26:08;4.85;;;4.35;;
30173;SDS011;16985;50.814;8.530;2022-08-20T12:28:34;5.60;;;4.95;;
30173;SDS011;16985;50.814;8.530;2022-08-20T12:30:59;5.60;;;5.05;;
30173;SDS011;16985;50.814;8.530;2022-08-20T12:33:25;5.05;;;4.05;;
30173;SDS011;16985;50.814;8.530;2022-08-20T12:35:51;5.57;;;4.60;;
30173;SDS011;16985;50.814;8.530;2022-08-20T12:38:17;7.28;;;4.78;;
30173;SDS011;16985;50.814;8.530;2022-08-20T12:40:43;4.88;;;4.30;;
30173;SDS011;16985;50.814;8.530;2022-08-20T12:43:12;4.72;;;4.30;;
30173;SDS011;16985;50.814;8.530;2022-08-20T12:45:38;4.90;;;4.47;;
30173;SDS011;16985;50.814;8.530;2022-08-20T12:48:06;4.70;;;4.30;;
30173;SDS011;16985;50.814;8.530;2022-08-20T12:50:36;4.55;;;4.15;;
30173;SDS011;16985;50.814;8.530;2022-08-20T12:53:04;4.32;;;3.92;;
30173;SDS011;16985;50.814;8.530;2022-08-20T12:55:33;4.28;;;3.88;;
30173;SDS011;16985;50.814;8.530;2022-08-20T12:58:00;4.82;;;4.30;;
30173;SDS011;16985;50.814;8.530;2022-08-20T13:00:30;4.95;;;3.83;;
30173;SDS011;16985;50.814;8.530;2022-08-20T13:03:08;3.55;;;3.17;;
30173;SDS011;16985;50.814;8.530;2022-08-20T13:08:09;3.10;;;2.80;;
30173;SDS011;16985;50.814;8.530;2022-08-20T13:10:37;3.42;;;3.13;;
30173;SDS011;16985;50.814;8.530;2022-08-20T13:13:08;3.85;;;3.30;;
30173;SDS011;16985;50.814;8.530;2022-08-20T13:15:36;4.15;;;3.60;;
30173;SDS011;16985;50.814;8.530;2022-08-20T13:18:03;4.53;;;3.58;;
30173;SDS011;16985;50.814;8.530;2022-08-20T13:20:31;3.60;;;3.17;;
30173;SDS011;16985;50.814;8.530;2022-08-20T13:23:00;6.25;;;3.35;;
30173;SDS011;16985;50.814;8.530;2022-08-20T13:25:29;5.25;;;3.85;;
30173;SDS011;16985;50.814;8.530;2022-08-20T13:27:57;6.82;;;4.15;;
30173;SDS011;16985;50.814;8.530;2022-08-20T13:30:26;6.50;;;3.65;;
30173;SDS011;16985;50.814;8.530;2022-08-20T13:32:52;4.03;;;3.33;;
30173;SDS011;16985;50.814;8.530;2022-08-20T13:35:18;6.55;;;3.60;;
30173;SDS011;16985;50.814;8.530;2022-08-20T13:37:44;4.70;;;3.25;;
30173;SDS011;16985;50.814;8.530;2022-08-20T13:40:10;3.53;;;3.20;;
30173;SDS011;16985;50.814;8.530;2022-08-20T13:42:36;3.80;;;3.40;;
30173;SDS011;16985;50.814;8.530;2022-08-20T13:45:02;5.20;;;3.63;;
30173;SDS011;16985;50.814;8.530;2022-08-20T13:50:10;3.50;;;3.20;;
30173;SDS011;16985;50.814;8.530;2022-08-20T13:52:43;3.95;;;3.45;;
30173;SDS011;16985;50.814;8.530;2022-08-20T13:55:10;7.70;;;3.30;;
30173;SDS011;16985;50.814;8.530;2022-08-20T13:57:39;3.83;;;3.10;;
30173;SDS011;16985;50.814;8.530;2022-08-20T14:00:06;3.80;;;3.35;;
30173;SDS011;16985;50.814;8.530;2022-08-20T14:02:36;3.85;;;3.25;;
30173;SDS011;16985;50.814;8.530;2022-08-20T14:05:03;3.78;;;3.45;;
30173;SDS011;16985;50.814;8.530;2022-08-20T14:07:29;3.42;;;3.00;;
30173;SDS011;16985;50.814;8.530;2022-08-20T14:09:59;3.50;;;3.20;;
30173;SDS011;16985;50.814;8.530;2022-08-20T14:12:29;3.15;;;2.95;;
30173;SDS011;16985;50.814;8.530;2022-08-20T14:14:55;3.70;;;3.40;;
30173;SDS011;16985;50.814;8.530;2022-08-20T14:17:26;5.15;;;4.05;;
30173;SDS011;16985;50.814;8.530;2022-08-20T14:19:55;3.45;;;3.15;;
30173;SDS011;16985;50.814;8.530;2022-08-20T14:22:24;4.22;;;3.83;;
30173;SDS011;16985;50.814;8.530;2022-08-20T14:24:50;5.07;;;4.05;;
30173;SDS011;16985;50.814;8.530;2022-08-20T14:27:17;4.15;;;3.75;;
30173;SDS011;16985;50.814;8.530;2022-08-20T14:29:46;4.15;;;3.40;;
30173;SDS011;16985;50.814;8.530;2022-08-20T14:34:39;4.75;;;3.10;;
30173;SDS011;16985;50.814;8.530;2022-08-20T14:37:22;4.18;;;3.42;;
30173;SDS011;16985;50.814;8.530;2022-08-20T14:39:53;4.20;;;3.63;;
30173;SDS011;16985;50.814;8.530;2022-08-20T14:42:21;3.40;;;3.10;;
30173;SDS011;16985;50.814;8.530;2022-08-20T14:44:48;3.40;;;3.10;;
30173;SDS011;16985;50.814;8.530;2022-08-20T14:47:17;4.63;;;3.30;;
30173;SDS011;16985;50.814;8.530;2022-08-20T14:49:53;3.30;;;3.00;;
30173;SDS011;16985;50.814;8.530;2022-08-20T14:52:22;3.95;;;3.55;;
30173;SDS011;16985;50.814;8.530;2022-08-20T14:54:49;4.25;;;3.40;;
30173;SDS011;16985;50.814;8.530;2022-08-20T14:57:16;5.43;;;3.75;;
30173;SDS011;16985;50.814;8.530;2022-08-20T14:59:44;4.50;;;3.72;;
30173;SDS011;16985;50.814;8.530;2022-08-20T15:02:11;4.80;;;4.17;;
30173;SDS011;16985;50.814;8.530;2022-08-20T15:04:39;5.63;;;4.57;;
30173;SDS011;16985;50.814;8.530;2022-08-20T15:07:06;4.78;;;4.38;;
30173;SDS011;16985;50.814;8.530;2022-08-20T15:09:39;5.28;;;4.78;;
30173;SDS011;16985;50.814;8.530;2022-08-20T15:12:05;5.65;;;4.90;;
30173;SDS011;16985;50.814;8.530;2022-08-20T15:14:31;5.30;;;4.80;;
30173;SDS011;16985;50.814;8.530;2022-08-20T15:16:57;5.90;;;5.20;;
30173;SDS011;16985;50.814;8.530;2022-08-20T15:19:23;6.25;;;5.53;;
30173;SDS011;16985;50.814;8.530;2022-08-20T15:21:48;6.15;;;5.55;;
30173;SDS011;16985;50.814;8.530;2022-08-20T15:24:15;6.07;;;5.47;;
30173;SDS011;16985;50.814;8.530;2022-08-20T15:26:41;6.63;;;5.90;;
30173;SDS011;16985;50.814;8.530;2022-08-20T15:29:06;6.40;;;5.70;;
30173;SDS011;16985;50.814;8.530;2022-08-20T15:31:32;9.18;;;5.45;;
30173;SDS011;16985;50.814;8.530;2022-08-20T15:33:58;6.07;;;5.47;;